createdAt,value
2022-10-26T00:00:33.816Z,98748.18
2022-10-26T00:01:55.602Z,98744.84
2022-10-26T00:02:57.310Z,98742.98
2022-10-26T00:03:58.930Z,98747.97
2022-10-26T00:05:00.538Z,98743.11
2022-10-26T00:06:07.958Z,98741.83
2022-10-26T00:07:09.797Z,98744.46
2022-10-26T00:08:11.952Z,98743.81
2022-10-26T00:09:14.123Z,98744.30
2022-10-26T00:10:15.995Z,98747.17
2022-10-26T00:11:19.070Z,98745.88
2022-10-26T00:12:20.715Z,98748.46
2022-10-26T00:13:22.373Z,98747.96
2022-10-26T00:14:24.554Z,98750.67
2022-10-26T00:15:26.271Z,98753.38
2022-10-26T00:16:28.048Z,98757.16
2022-10-26T00:17:29.890Z,98753.16
2022-10-26T00:18:31.527Z,98753.29
2022-10-26T00:19:35.090Z,98756.10
2022-10-26T00:20:39.954Z,98756.83
2022-10-26T00:21:42.754Z,98757.48
2022-10-26T00:22:44.504Z,98754.85
2022-10-26T00:23:46.279Z,98755.23
2022-10-26T00:24:47.957Z,98752.48
2022-10-26T00:25:57.332Z,98757.61
2022-10-26T00:27:00.276Z,98756.54
2022-10-26T00:28:11.045Z,98752.86
2022-10-26T00:29:12.864Z,98755.34
2022-10-26T00:30:14.654Z,98754.86
2022-10-26T00:31:16.726Z,98758.85
2022-10-26T00:32:18.415Z,98762.64
2022-10-26T00:33:20.172Z,98761.61
2022-10-26T00:34:21.832Z,98761.83
2022-10-26T00:35:34.750Z,98764.58
2022-10-26T00:36:45.395Z,98766.70
2022-10-26T00:37:47.509Z,98765.30
2022-10-26T00:38:51.099Z,98766.69
2022-10-26T00:39:52.894Z,98766.58
2022-10-26T00:40:54.659Z,98766.15
2022-10-26T00:41:56.360Z,98764.70
2022-10-26T00:42:58.170Z,98766.96
2022-10-26T00:44:00.841Z,98767.28
2022-10-26T00:45:19.270Z,98768.37
2022-10-26T00:46:41.214Z,98769.29
2022-10-26T00:47:49.162Z,98763.03
2022-10-26T00:49:01.599Z,98763.51
2022-10-26T00:50:11.713Z,98764.12
2022-10-26T00:51:24.780Z,98764.23
2022-10-26T00:52:29.637Z,98764.27
2022-10-26T00:53:33.164Z,98763.46
2022-10-26T00:54:35.813Z,98760.55
2022-10-26T00:55:47.333Z,98759.42
2022-10-26T00:56:54.704Z,98756.39
2022-10-26T00:57:56.758Z,98757.79
2022-10-26T00:59:05.683Z,98757.96
2022-10-26T01:00:08.674Z,98757.14
2022-10-26T01:01:10.513Z,98758.33
2022-10-26T01:02:13.550Z,98756.23
2022-10-26T01:03:16.244Z,98752.81
2022-10-26T01:04:18.856Z,98754.06
2022-10-26T01:05:21.397Z,98753.05
2022-10-26T01:06:23.179Z,98751.34
2022-10-26T01:07:27.562Z,98753.41
2022-10-26T01:08:30.439Z,98752.70
2022-10-26T01:09:34.018Z,98754.86
2022-10-26T01:10:40.282Z,98756.03
2022-10-26T01:11:41.919Z,98755.02
2022-10-26T01:12:43.813Z,98755.60
2022-10-26T01:13:48.678Z,98754.09
2022-10-26T01:14:50.609Z,98754.64
2022-10-26T01:16:16.743Z,98755.98
2022-10-26T01:17:38.138Z,98757.94
2022-10-26T01:18:58.489Z,98759.73
2022-10-26T01:20:25.361Z,98759.88
2022-10-26T01:21:26.924Z,98763.93
2022-10-26T01:22:47.860Z,98764.73
2022-10-26T01:24:16.560Z,98765.17
2022-10-26T01:25:50.850Z,98766.52
2022-10-26T01:27:04.280Z,98766.52
2022-10-26T01:28:34.374Z,98772.58
2022-10-26T01:29:41.870Z,98769.83
2022-10-26T01:30:48.817Z,98775.45
2022-10-26T01:32:14.377Z,98772.21
2022-10-26T01:33:35.207Z,98770.42
2022-10-26T01:35:04.955Z,98772.25
2022-10-26T01:36:38.739Z,98772.42
2022-10-26T01:37:52.236Z,98771.98
2022-10-26T01:39:28.229Z,98773.12
2022-10-26T01:40:38.050Z,98771.51
2022-10-26T01:41:48.088Z,98768.27
2022-10-26T01:42:55.356Z,98771.17
2022-10-26T01:44:04.473Z,98767.92
2022-10-26T01:45:11.661Z,98767.29
2022-10-26T01:46:17.171Z,98770.14
2022-10-26T01:47:23.499Z,98771.13
2022-10-26T01:48:27.663Z,98771.45
2022-10-26T01:49:35.631Z,98772.53
2022-10-26T01:50:40.006Z,98774.80
2022-10-26T01:51:44.943Z,98773.29
2022-10-26T01:52:50.719Z,98775.02
2022-10-26T01:53:52.415Z,98774.69
2022-10-26T01:55:23.288Z,98776.09
2022-10-26T01:56:34.988Z,98775.92
2022-10-26T01:57:38.693Z,98776.69
2022-10-26T01:59:01.373Z,98772.80
2022-10-26T02:00:12.272Z,98773.34
2022-10-26T02:01:44.274Z,98771.39
2022-10-26T02:03:07.489Z,98771.92
2022-10-26T02:04:46.154Z,98768.70
2022-10-26T02:06:05.027Z,98772.67
2022-10-26T02:07:30.507Z,98771.88
2022-10-26T02:08:58.469Z,98773.66
2022-10-26T02:10:18.798Z,98774.67
2022-10-26T02:11:32.899Z,98773.74
2022-10-26T02:12:50.129Z,98770.98
2022-10-26T02:14:02.692Z,98770.16
2022-10-26T02:15:11.450Z,98766.16
2022-10-26T02:16:26.504Z,98772.22
2022-10-26T02:17:41.278Z,98764.87
2022-10-26T02:18:54.128Z,98767.19
2022-10-26T02:20:04.967Z,98767.71
2022-10-26T02:21:17.090Z,98768.60
2022-10-26T02:22:28.905Z,98773.88
2022-10-26T02:23:36.862Z,98771.26
2022-10-26T02:24:41.224Z,98771.62
2022-10-26T02:25:55.233Z,98773.40
2022-10-26T02:27:01.803Z,98775.13
2022-10-26T02:28:10.053Z,98775.45
2022-10-26T02:29:17.677Z,98774.46
2022-10-26T02:30:20.212Z,98775.98
2022-10-26T02:31:25.853Z,98776.09
2022-10-26T02:32:34.608Z,98772.84
2022-10-26T02:34:53.770Z,98774.67
2022-10-26T02:36:01.319Z,98777.60
2022-10-26T02:37:06.004Z,98775.98
2022-10-26T02:38:13.094Z,98780.69
2022-10-26T02:39:19.150Z,98778.69
2022-10-26T02:40:25.862Z,98779.55
2022-10-26T02:41:30.841Z,98781.34
2022-10-26T02:42:33.864Z,98779.88
2022-10-26T02:43:48.340Z,98779.88
2022-10-26T02:45:02.866Z,98784.37
2022-10-26T02:46:11.215Z,98779.50
2022-10-26T02:47:13.706Z,98782.58
2022-10-26T02:48:15.918Z,98784.50
2022-10-26T02:49:18.743Z,98783.38
2022-10-26T02:50:29.988Z,98782.45
2022-10-26T02:51:49.749Z,98784.57
2022-10-26T02:53:08.678Z,98786.99
2022-10-26T02:54:32.798Z,98783.52
2022-10-26T02:55:44.155Z,98783.48
2022-10-26T02:56:55.091Z,98786.93
2022-10-26T02:58:06.622Z,98787.02
2022-10-26T02:59:12.722Z,98781.27
2022-10-26T03:00:17.899Z,98785.15
2022-10-26T03:01:20.854Z,98784.98
2022-10-26T03:02:23.648Z,98785.19
2022-10-26T03:03:26.155Z,98786.88
2022-10-26T03:04:32.422Z,98787.52
2022-10-26T03:05:36.132Z,98791.58
2022-10-26T03:06:37.762Z,98789.10
2022-10-26T03:07:39.377Z,98794.51
2022-10-26T03:08:41.028Z,98793.70
2022-10-26T03:09:42.662Z,98794.02
2022-10-26T03:10:46.125Z,98795.27
2022-10-26T03:11:47.874Z,98794.88
2022-10-26T03:12:49.899Z,98794.83
2022-10-26T03:13:51.806Z,98788.84
2022-10-26T03:14:53.479Z,98794.83
2022-10-26T03:15:57.607Z,98795.04
2022-10-26T03:16:59.275Z,98792.87
2022-10-26T03:18:01.067Z,98796.33
2022-10-26T03:19:02.707Z,98796.11
2022-10-26T03:20:04.987Z,98799.52
2022-10-26T03:21:06.850Z,98799.52
2022-10-26T03:22:08.490Z,98802.70
2022-10-26T03:23:10.262Z,98803.14
2022-10-26T03:24:12.018Z,98800.93
2022-10-26T03:25:15.594Z,98805.69
2022-10-26T03:26:17.567Z,98808.42
2022-10-26T03:27:19.528Z,98805.80
2022-10-26T03:28:21.196Z,98807.35
2022-10-26T03:29:23.373Z,98808.45
2022-10-26T03:30:26.387Z,98808.05
2022-10-26T03:31:28.019Z,98808.48
2022-10-26T03:32:29.667Z,98808.33
2022-10-26T03:33:31.615Z,98805.30
2022-10-26T03:34:33.387Z,98807.19
2022-10-26T03:35:35.185Z,98807.77
2022-10-26T03:36:36.930Z,98807.84
2022-10-26T03:37:38.573Z,98805.83
2022-10-26T03:38:40.280Z,98810.95
2022-10-26T03:39:41.937Z,98811.48
2022-10-26T03:40:43.617Z,98812.08
2022-10-26T03:41:45.509Z,98811.70
2022-10-26T03:42:47.405Z,98809.16
2022-10-26T03:43:49.356Z,98814.55
2022-10-26T03:44:51.914Z,98813.20
2022-10-26T03:45:53.845Z,98817.41
2022-10-26T03:46:55.522Z,98817.52
2022-10-26T03:47:57.187Z,98818.42
2022-10-26T03:48:58.866Z,98816.15
2022-10-26T03:50:00.834Z,98818.69
2022-10-26T03:51:02.512Z,98816.08
2022-10-26T03:52:04.388Z,98818.44
2022-10-26T03:53:07.180Z,98819.73
2022-10-26T03:54:09.034Z,98817.88
2022-10-26T03:55:11.024Z,98822.36
2022-10-26T03:56:12.733Z,98822.26
2022-10-26T03:57:14.400Z,98822.90
2022-10-26T03:58:16.092Z,98826.08
2022-10-26T03:59:17.835Z,98826.84
2022-10-26T04:00:19.669Z,98830.81
2022-10-26T04:01:21.502Z,98833.99
2022-10-26T04:02:23.200Z,98836.54
2022-10-26T04:03:24.865Z,98835.45
2022-10-26T04:04:26.691Z,98835.89
2022-10-26T04:05:29.829Z,98836.67
2022-10-26T04:06:31.489Z,98832.30
2022-10-26T04:07:33.180Z,98832.58
2022-10-26T04:08:35.173Z,98833.62
2022-10-26T04:09:36.925Z,98826.16
2022-10-26T04:10:38.580Z,98830.77
2022-10-26T04:11:40.207Z,98829.19
2022-10-26T04:12:41.817Z,98830.36
2022-10-26T04:13:43.450Z,98829.40
2022-10-26T04:14:45.090Z,98832.63
2022-10-26T04:15:46.709Z,98828.33
2022-10-26T04:16:48.369Z,98827.35
2022-10-26T04:17:56.816Z,98826.72
2022-10-26T04:18:58.490Z,98828.80
2022-10-26T04:20:00.197Z,98830.75
2022-10-26T04:21:02.397Z,98828.16
2022-10-26T04:22:04.151Z,98827.52
2022-10-26T04:23:16.497Z,98830.23
2022-10-26T04:24:18.186Z,98834.05
2022-10-26T04:25:19.944Z,98832.70
2022-10-26T04:26:21.714Z,98833.14
2022-10-26T04:27:23.427Z,98834.37
2022-10-26T04:28:25.066Z,98832.85
2022-10-26T04:29:26.720Z,98832.75
2022-10-26T04:30:28.517Z,98833.92
2022-10-26T04:31:30.634Z,98833.98
2022-10-26T04:32:32.321Z,98832.91
2022-10-26T04:33:33.946Z,98835.08
2022-10-26T04:34:35.648Z,98835.03
2022-10-26T04:35:37.339Z,98835.52
2022-10-26T04:36:39.084Z,98835.11
2022-10-26T04:37:41.030Z,98834.02
2022-10-26T04:38:43.167Z,98835.55
2022-10-26T04:39:44.832Z,98832.95
2022-10-26T04:40:46.569Z,98833.52
2022-10-26T04:41:48.215Z,98834.16
2022-10-26T04:42:50.031Z,98831.23
2022-10-26T04:43:51.883Z,98833.42
2022-10-26T04:44:53.524Z,98836.34
2022-10-26T04:45:58.669Z,98837.74
2022-10-26T04:47:00.395Z,98835.86
2022-10-26T04:48:08.461Z,98833.58
2022-10-26T04:49:10.244Z,98831.55
2022-10-26T04:50:13.195Z,98834.56
2022-10-26T04:51:14.991Z,98837.90
2022-10-26T04:52:16.711Z,98833.27
2022-10-26T04:53:18.350Z,98835.85
2022-10-26T04:54:20.542Z,98835.36
2022-10-26T04:55:22.532Z,98835.59
2022-10-26T04:56:24.481Z,98835.69
2022-10-26T04:57:26.092Z,98833.85
2022-10-26T04:58:28.971Z,98835.44
2022-10-26T04:59:30.716Z,98838.29
2022-10-26T05:00:33.447Z,98834.14
2022-10-26T05:01:35.271Z,98834.30
2022-10-26T05:02:37.118Z,98837.01
2022-10-26T05:03:38.746Z,98837.77
2022-10-26T05:04:40.396Z,98836.96
2022-10-26T05:05:42.279Z,98838.56
2022-10-26T05:06:43.953Z,98836.98
2022-10-26T05:07:53.944Z,98837.64
2022-10-26T05:08:55.613Z,98837.20
2022-10-26T05:09:57.261Z,98840.45
2022-10-26T05:10:58.919Z,98839.33
2022-10-26T05:12:00.665Z,98836.80
2022-10-26T05:13:03.062Z,98842.03
2022-10-26T05:14:04.825Z,98840.38
2022-10-26T05:15:08.622Z,98838.59
2022-10-26T05:16:10.481Z,98834.88
2022-10-26T05:17:12.160Z,98839.77
2022-10-26T05:18:13.803Z,98839.69
2022-10-26T05:19:15.431Z,98839.27
2022-10-26T05:20:17.059Z,98842.39
2022-10-26T05:21:21.552Z,98845.63
2022-10-26T05:22:23.228Z,98844.32
2022-10-26T05:23:24.869Z,98848.48
2022-10-26T05:24:26.537Z,98848.37
2022-10-26T05:25:31.349Z,98847.40
2022-10-26T05:26:33.133Z,98850.69
2022-10-26T05:27:34.759Z,98851.86
2022-10-26T05:28:36.470Z,98858.52
2022-10-26T05:29:38.128Z,98860.04
2022-10-26T05:30:41.151Z,98860.62
2022-10-26T05:31:43.463Z,98860.66
2022-10-26T05:32:45.109Z,98859.86
2022-10-26T05:33:52.569Z,98867.00
2022-10-26T05:34:54.165Z,98865.97
2022-10-26T05:35:55.807Z,98869.20
2022-10-26T05:36:57.506Z,98866.73
2022-10-26T05:38:00.253Z,98867.02
2022-10-26T05:39:02.545Z,98870.83
2022-10-26T05:40:04.614Z,98871.52
2022-10-26T05:41:06.245Z,98873.69
2022-10-26T05:42:07.898Z,98874.17
2022-10-26T05:43:10.081Z,98872.61
2022-10-26T05:44:11.718Z,98874.41
2022-10-26T05:45:13.865Z,98872.64
2022-10-26T05:46:15.643Z,98869.56
2022-10-26T05:47:17.450Z,98872.39
2022-10-26T05:48:19.521Z,98871.96
2022-10-26T05:49:21.197Z,98877.09
2022-10-26T05:50:22.940Z,98876.68
2022-10-26T05:51:24.777Z,98878.36
2022-10-26T05:52:26.442Z,98879.34
2022-10-26T05:53:28.671Z,98882.59
2022-10-26T05:54:30.540Z,98879.63
2022-10-26T05:55:32.659Z,98879.84
2022-10-26T05:56:39.253Z,98880.77
2022-10-26T05:57:41.711Z,98881.69
2022-10-26T05:58:43.697Z,98883.91
2022-10-26T05:59:45.695Z,98879.32
2022-10-26T06:01:13.364Z,98884.98
2022-10-26T06:02:30.862Z,98888.17
2022-10-26T06:03:52.344Z,98885.80
2022-10-26T06:05:05.568Z,98887.93
2022-10-26T06:06:08.051Z,98888.58
2022-10-26T06:07:14.310Z,98888.43
2022-10-26T06:08:16.280Z,98896.38
2022-10-26T06:09:18.183Z,98892.92
2022-10-26T06:10:20.591Z,98894.60
2022-10-26T06:11:22.481Z,98895.89
2022-10-26T06:12:26.588Z,98897.38
2022-10-26T06:13:28.531Z,98898.94
2022-10-26T06:14:30.567Z,98899.95
2022-10-26T06:15:43.935Z,98900.86
2022-10-26T06:16:58.062Z,98900.58
2022-10-26T06:18:08.663Z,98901.48
2022-10-26T06:19:27.171Z,98901.95
2022-10-26T06:20:51.749Z,98905.73
2022-10-26T06:22:26.913Z,98903.98
2022-10-26T06:23:31.562Z,98906.57
2022-10-26T06:24:59.278Z,98909.66
2022-10-26T06:26:27.284Z,98907.34
2022-10-26T06:27:52.319Z,98908.37
2022-10-26T06:29:09.764Z,98908.65
2022-10-26T06:30:12.089Z,98910.19
2022-10-26T06:31:14.582Z,98906.30
2022-10-26T06:32:17.561Z,98911.54
2022-10-26T06:33:35.540Z,98914.41
2022-10-26T06:34:45.490Z,98915.80
2022-10-26T06:36:06.871Z,98917.88
2022-10-26T06:37:09.834Z,98917.71
2022-10-26T06:38:23.196Z,98915.00
2022-10-26T06:39:27.909Z,98917.38
2022-10-26T06:40:33.083Z,98914.39
2022-10-26T06:41:36.934Z,98915.70
2022-10-26T06:42:39.055Z,98912.26
2022-10-26T06:43:41.223Z,98913.78
2022-10-26T06:44:43.464Z,98913.52
2022-10-26T06:45:54.709Z,98914.06
2022-10-26T06:47:17.639Z,98916.61
2022-10-26T06:48:28.292Z,98921.34
2022-10-26T06:49:54.673Z,98922.31
2022-10-26T06:50:56.692Z,98919.98
2022-10-26T06:52:25.754Z,98921.05
2022-10-26T06:54:49.797Z,98921.80
2022-10-26T06:55:52.394Z,98918.99
2022-10-26T06:56:54.317Z,98918.19
2022-10-26T06:57:56.103Z,98921.30
2022-10-26T06:59:08.388Z,98921.79
2022-10-26T07:00:19.861Z,98924.19
2022-10-26T07:01:21.852Z,98924.45
2022-10-26T07:02:23.875Z,98925.38
2022-10-26T07:03:25.635Z,98926.19
2022-10-26T07:04:27.432Z,98925.98
2022-10-26T07:05:29.115Z,98927.58
2022-10-26T07:06:32.445Z,98932.27
2022-10-26T07:07:43.005Z,98932.97
2022-10-26T07:08:44.707Z,98937.16
2022-10-26T07:09:46.381Z,98938.08
2022-10-26T07:10:48.027Z,98941.73
2022-10-26T07:11:49.642Z,98943.44
2022-10-26T07:12:51.250Z,98941.27
2022-10-26T07:13:52.893Z,98944.42
2022-10-26T07:14:55.000Z,98943.70
2022-10-26T07:15:56.656Z,98943.23
2022-10-26T07:16:58.405Z,98942.77
2022-10-26T07:18:00.306Z,98945.34
2022-10-26T07:19:01.917Z,98947.14
2022-10-26T07:20:03.946Z,98946.70
2022-10-26T07:21:05.719Z,98947.42
2022-10-26T07:22:07.366Z,98947.90
2022-10-26T07:23:13.061Z,98949.89
2022-10-26T07:24:15.209Z,98947.42
2022-10-26T07:25:16.909Z,98949.53
2022-10-26T07:26:18.775Z,98949.96
2022-10-26T07:27:20.437Z,98949.45
2022-10-26T07:28:22.031Z,98951.91
2022-10-26T07:29:25.765Z,98953.16
2022-10-26T07:30:29.130Z,98950.86
2022-10-26T07:31:30.780Z,98951.41
2022-10-26T07:32:33.014Z,98953.23
2022-10-26T07:33:36.910Z,98948.13
2022-10-26T07:34:42.539Z,98948.24
2022-10-26T07:35:44.653Z,98953.08
2022-10-26T07:36:46.279Z,98949.41
2022-10-26T07:37:49.650Z,98949.16
2022-10-26T07:38:53.065Z,98949.34
2022-10-26T07:39:54.688Z,98951.20
2022-10-26T07:40:56.520Z,98954.07
2022-10-26T07:41:58.668Z,98958.52
2022-10-26T07:43:01.187Z,98958.23
2022-10-26T07:44:03.036Z,98959.02
2022-10-26T07:45:05.042Z,98964.36
2022-10-26T07:46:06.921Z,98965.06
2022-10-26T07:47:08.647Z,98967.91
2022-10-26T07:48:10.224Z,98964.98
2022-10-26T07:49:11.825Z,98967.20
2022-10-26T07:50:13.451Z,98966.39
2022-10-26T07:51:15.645Z,98964.79
2022-10-26T07:52:17.406Z,98964.80
2022-10-26T07:53:19.069Z,98964.23
2022-10-26T07:54:20.738Z,98961.36
2022-10-26T07:55:22.386Z,98960.66
2022-10-26T07:56:24.161Z,98965.20
2022-10-26T07:57:25.770Z,98962.94
2022-10-26T07:58:28.195Z,98962.75
2022-10-26T07:59:29.844Z,98965.88
2022-10-26T08:00:31.821Z,98966.87
2022-10-26T08:01:33.933Z,98963.69
2022-10-26T08:02:36.420Z,98965.27
2022-10-26T08:03:38.214Z,98968.88
2022-10-26T08:04:39.834Z,98968.70
2022-10-26T08:05:41.536Z,98969.39
2022-10-26T08:06:43.772Z,98968.14
2022-10-26T08:07:45.585Z,98964.85
2022-10-26T08:08:47.689Z,98967.23
2022-10-26T08:09:49.482Z,98970.85
2022-10-26T08:10:52.270Z,98966.64
2022-10-26T08:11:53.879Z,98969.48
2022-10-26T08:12:55.641Z,98972.35
2022-10-26T08:13:57.274Z,98966.63
2022-10-26T08:14:58.894Z,98966.00
2022-10-26T08:16:03.445Z,98966.81
2022-10-26T08:17:05.356Z,98967.48
2022-10-26T08:18:07.631Z,98968.23
2022-10-26T08:19:09.394Z,98966.45
2022-10-26T08:20:11.549Z,98967.15
2022-10-26T08:21:21.726Z,98964.21
2022-10-26T08:22:32.212Z,98965.41
2022-10-26T08:23:34.383Z,98965.94
2022-10-26T08:24:36.011Z,98962.80
2022-10-26T08:25:37.617Z,98968.02
2022-10-26T08:26:39.224Z,98971.36
2022-10-26T08:27:40.862Z,98967.77
2022-10-26T08:28:42.834Z,98971.30
2022-10-26T08:29:44.455Z,98969.33
2022-10-26T08:30:46.077Z,98966.54
2022-10-26T08:31:48.715Z,98964.84
2022-10-26T08:32:58.620Z,98967.60
2022-10-26T08:34:00.610Z,98968.70
2022-10-26T08:35:02.264Z,98968.77
2022-10-26T08:36:05.555Z,98969.49
2022-10-26T08:37:07.213Z,98970.89
2022-10-26T08:38:08.859Z,98971.59
2022-10-26T08:39:10.551Z,98969.11
2022-10-26T08:40:16.980Z,98970.91
2022-10-26T08:41:36.292Z,98968.55
2022-10-26T08:42:47.927Z,98967.86
2022-10-26T08:44:01.628Z,98964.14
2022-10-26T08:45:29.587Z,98968.56
2022-10-26T08:46:43.041Z,98964.83
2022-10-26T08:47:51.403Z,98967.26
2022-10-26T08:49:02.502Z,98965.35
2022-10-26T08:50:19.178Z,98967.91
2022-10-26T08:51:35.506Z,98969.69
2022-10-26T08:53:03.731Z,98970.84
2022-10-26T08:54:27.794Z,98979.17
2022-10-26T08:56:58.386Z,98984.02
2022-10-26T08:58:05.376Z,98984.35
2022-10-26T08:59:40.691Z,98986.80
2022-10-26T09:00:44.170Z,98986.98
2022-10-26T09:01:46.169Z,98984.80
2022-10-26T09:02:54.280Z,98989.78
2022-10-26T09:03:57.508Z,98992.55
2022-10-26T09:05:00.435Z,98997.41
2022-10-26T09:06:23.990Z,98995.56
2022-10-26T09:08:08.891Z,98996.49
2022-10-26T09:09:19.770Z,99000.76
2022-10-26T09:10:56.746Z,98999.89
2022-10-26T09:12:18.999Z,99001.52
2022-10-26T09:13:34.876Z,99005.36
2022-10-26T09:15:22.900Z,99005.46
2022-10-26T09:16:39.505Z,99009.58
2022-10-26T09:17:51.242Z,99012.59
2022-10-26T09:19:08.818Z,99012.95
2022-10-26T09:20:39.851Z,99014.95
2022-10-26T09:21:52.902Z,99017.48
2022-10-26T09:23:21.276Z,99016.48
2022-10-26T09:24:32.451Z,99016.38
2022-10-26T09:25:40.464Z,99020.49
2022-10-26T09:26:55.047Z,99018.18
2022-10-26T09:28:02.223Z,99021.98
2022-10-26T09:29:11.693Z,99019.62
2022-10-26T09:30:18.472Z,99021.69
2022-10-26T09:31:20.352Z,99024.56
2022-10-26T09:32:55.469Z,99023.70
2022-10-26T09:34:02.901Z,99025.98
2022-10-26T09:35:16.087Z,99027.11
2022-10-26T09:36:22.158Z,99026.24
2022-10-26T09:37:40.576Z,99031.39
2022-10-26T09:38:56.885Z,99033.93
2022-10-26T09:40:20.276Z,99038.59
2022-10-26T09:41:39.449Z,99039.66
2022-10-26T09:42:53.921Z,99039.13
2022-10-26T09:44:16.950Z,99039.84
2022-10-26T09:45:25.477Z,99038.73
2022-10-26T09:46:33.520Z,99038.09
2022-10-26T09:47:39.124Z,99034.45
2022-10-26T09:48:54.302Z,99039.50
2022-10-26T09:50:09.872Z,99038.75
2022-10-26T09:51:11.780Z,99038.10
2022-10-26T09:52:13.621Z,99038.54
2022-10-26T09:53:15.627Z,99039.94
2022-10-26T09:54:20.825Z,99043.20
2022-10-26T09:55:23.055Z,99038.80
2022-10-26T09:56:27.990Z,99044.23
2022-10-26T09:57:29.879Z,99044.66
2022-10-26T09:58:38.570Z,99041.63
2022-10-26T09:59:42.021Z,99048.60
2022-10-26T10:00:46.064Z,99047.84
2022-10-26T10:01:47.788Z,99046.06
2022-10-26T10:02:55.480Z,99042.32
2022-10-26T10:04:11.811Z,99047.23
2022-10-26T10:05:49.887Z,99044.92
2022-10-26T10:07:15.439Z,99049.69
2022-10-26T10:08:19.787Z,99049.95
2022-10-26T10:09:24.780Z,99049.36
2022-10-26T10:10:26.453Z,99048.82
2022-10-26T10:11:41.823Z,99049.81
2022-10-26T10:12:44.978Z,99048.83
2022-10-26T10:13:46.910Z,99048.06
2022-10-26T10:14:59.672Z,99049.10
2022-10-26T10:16:06.406Z,99045.40
2022-10-26T10:17:21.308Z,99039.50
2022-10-26T10:18:24.368Z,99042.09
2022-10-26T10:19:38.299Z,99037.41
2022-10-26T10:20:39.995Z,99037.77
2022-10-26T10:21:48.233Z,99037.51
2022-10-26T10:23:24.644Z,99037.11
2022-10-26T10:24:28.181Z,99036.00
2022-10-26T10:25:38.875Z,99032.20
2022-10-26T10:27:03.397Z,99036.20
2022-10-26T10:28:27.688Z,99035.49
2022-10-26T10:29:32.785Z,99032.12
2022-10-26T10:30:34.494Z,99030.15
2022-10-26T10:31:36.181Z,99030.73
2022-10-26T10:32:40.586Z,99028.23
2022-10-26T10:33:45.854Z,99027.78
2022-10-26T10:34:48.828Z,99023.43
2022-10-26T10:35:52.569Z,99026.61
2022-10-26T10:36:54.950Z,99026.95
2022-10-26T10:37:57.733Z,99028.30
2022-10-26T10:39:00.617Z,99027.70
2022-10-26T10:40:09.113Z,99027.17
2022-10-26T10:41:25.820Z,99026.35
2022-10-26T10:42:33.183Z,99028.65
2022-10-26T10:43:34.958Z,99021.79
2022-10-26T10:44:36.726Z,99028.58
2022-10-26T10:45:39.028Z,99024.41
2022-10-26T10:46:41.029Z,99030.31
2022-10-26T10:47:45.131Z,99025.98
2022-10-26T10:48:52.547Z,99027.27
2022-10-26T10:50:03.401Z,99023.70
2022-10-26T10:51:12.576Z,99024.29
2022-10-26T10:52:27.557Z,99026.42
2022-10-26T10:53:43.931Z,99025.46
2022-10-26T10:54:50.836Z,99029.20
2022-10-26T10:56:26.508Z,99027.21
2022-10-26T10:57:49.343Z,99027.02
2022-10-26T10:59:11.288Z,99027.39
2022-10-26T11:00:13.244Z,99023.31
2022-10-26T11:01:23.103Z,99023.48
2022-10-26T11:03:06.206Z,99022.02
2022-10-26T11:04:34.197Z,99021.73
2022-10-26T11:06:00.163Z,99024.14
2022-10-26T11:07:07.063Z,99025.25
2022-10-26T11:08:18.275Z,99028.45
2022-10-26T11:09:27.637Z,99024.91
2022-10-26T11:11:04.436Z,99020.13
2022-10-26T11:12:38.958Z,99016.14
2022-10-26T11:13:52.875Z,99012.64
2022-10-26T11:15:03.106Z,99013.95
2022-10-26T11:16:15.208Z,99017.19
2022-10-26T11:17:27.740Z,99017.99
2022-10-26T11:18:37.541Z,99020.33
2022-10-26T11:20:15.178Z,99024.86
2022-10-26T11:21:23.712Z,99020.86
2022-10-26T11:22:33.373Z,99020.20
2022-10-26T11:23:45.800Z,99022.10
2022-10-26T11:24:54.178Z,99021.90
2022-10-26T11:26:14.003Z,99020.34
2022-10-26T11:27:20.431Z,99021.00
2022-10-26T11:28:43.048Z,99019.52
2022-10-26T11:30:19.797Z,99020.16
2022-10-26T11:31:27.909Z,99021.36
2022-10-26T11:32:41.494Z,99024.64
2022-10-26T11:34:03.339Z,99022.79
2022-10-26T11:35:12.568Z,99019.75
2022-10-26T11:36:24.994Z,99022.26
2022-10-26T11:38:08.567Z,99023.08
2022-10-26T11:39:41.518Z,99021.27
2022-10-26T11:40:54.775Z,99027.86
2022-10-26T11:42:15.551Z,99027.24
2022-10-26T11:43:40.078Z,99026.63
2022-10-26T11:44:53.277Z,99023.28
2022-10-26T11:46:16.550Z,99018.71
2022-10-26T11:47:35.468Z,99024.68
2022-10-26T11:49:02.315Z,99026.01
2022-10-26T11:50:19.163Z,99025.52
2022-10-26T11:51:41.628Z,99024.30
2022-10-26T11:52:49.895Z,99027.52
2022-10-26T11:53:52.377Z,99021.96
2022-10-26T11:55:00.437Z,99020.27
2022-10-26T11:56:11.805Z,99021.84
2022-10-26T11:57:16.648Z,99019.88
2022-10-26T11:58:19.413Z,99019.91
2022-10-26T11:59:32.279Z,99017.41
2022-10-26T12:00:47.620Z,99018.42
2022-10-26T12:01:58.430Z,99016.35
2022-10-26T12:03:12.383Z,99018.71
2022-10-26T12:04:16.512Z,99018.80
2022-10-26T12:05:33.477Z,99023.77
2022-10-26T12:06:35.692Z,99021.64
2022-10-26T12:07:41.985Z,99020.52
2022-10-26T12:08:53.843Z,99018.23
2022-10-26T12:09:58.911Z,99021.18
2022-10-26T12:11:08.868Z,99020.40
2022-10-26T12:12:42.428Z,99020.39
2022-10-26T12:14:15.837Z,99021.73
2022-10-26T12:15:40.286Z,99022.00
2022-10-26T12:17:10.596Z,99028.37
2022-10-26T12:18:43.177Z,99030.28
2022-10-26T12:20:25.670Z,99036.48
2022-10-26T12:21:33.169Z,99033.06
2022-10-26T12:22:43.607Z,99033.53
2022-10-26T12:23:58.804Z,99034.80
2022-10-26T12:25:15.274Z,99037.70
2022-10-26T12:26:23.278Z,99038.40
2022-10-26T12:27:31.427Z,99039.08
2022-10-26T12:28:36.006Z,99040.89
2022-10-26T12:29:47.303Z,99038.48
2022-10-26T12:30:48.942Z,99043.23
2022-10-26T12:31:50.896Z,99040.92
2022-10-26T12:32:59.001Z,99040.39
2022-10-26T12:34:01.005Z,99040.07
2022-10-26T12:35:31.665Z,99041.84
2022-10-26T12:36:55.154Z,99044.25
2022-10-26T12:37:59.249Z,99042.52
2022-10-26T12:39:02.056Z,99043.55
2022-10-26T12:40:41.276Z,99042.59
2022-10-26T12:41:56.762Z,99044.83
2022-10-26T12:43:18.248Z,99036.58
2022-10-26T12:44:43.517Z,99042.96
2022-10-26T12:46:13.923Z,99041.95
2022-10-26T12:47:48.545Z,99044.94
2022-10-26T12:48:53.177Z,99042.01
2022-10-26T12:50:06.908Z,99043.22
2022-10-26T12:51:21.600Z,99041.23
2022-10-26T12:52:30.534Z,99040.02
2022-10-26T12:53:33.413Z,99039.49
2022-10-26T12:55:05.350Z,99041.27
2022-10-26T12:56:18.132Z,99033.40
2022-10-26T12:57:29.068Z,99034.45
2022-10-26T12:58:41.540Z,99031.95
2022-10-26T12:59:53.498Z,99032.07
2022-10-26T13:00:57.714Z,99034.55
2022-10-26T13:02:33.052Z,99036.54
2022-10-26T13:03:58.238Z,99028.73
2022-10-26T13:05:13.443Z,99029.98
2022-10-26T13:06:51.462Z,99032.01
2022-10-26T13:08:02.897Z,99029.50
2022-10-26T13:09:21.100Z,99032.54
2022-10-26T13:10:26.362Z,99034.70
2022-10-26T13:11:35.327Z,99035.11
2022-10-26T13:12:48.609Z,99034.35
2022-10-26T13:14:03.352Z,99036.77
2022-10-26T13:15:20.899Z,99039.06
2022-10-26T13:16:27.896Z,99042.36
2022-10-26T13:18:45.939Z,99040.26
2022-10-26T13:19:54.631Z,99041.11
2022-10-26T13:21:05.020Z,99042.09
2022-10-26T13:22:16.151Z,99039.08
2022-10-26T13:23:27.043Z,99032.84
2022-10-26T13:24:34.202Z,99032.72
2022-10-26T13:25:36.309Z,99035.80
2022-10-26T13:27:05.753Z,99036.23
2022-10-26T13:28:47.551Z,99034.78